createdAt,value
2022-12-03T00:00:36.274Z,54.15
2022-12-03T00:01:36.344Z,55.67
2022-12-03T00:02:36.316Z,52.35
2022-12-03T00:03:36.499Z,51.81
2022-12-03T00:04:36.262Z,50.61
2022-12-03T00:05:36.200Z,56.14
2022-12-03T00:06:36.289Z,50.21
2022-12-03T00:07:36.364Z,53.27
2022-12-03T00:08:36.232Z,60.06
2022-12-03T00:09:36.162Z,53.70
2022-12-03T00:10:36.240Z,57.10
2022-12-03T00:11:36.241Z,51.42
2022-12-03T00:12:36.197Z,49.46
2022-12-03T00:13:36.271Z,58.28
2022-12-03T00:14:41.288Z,55.51
2022-12-03T00:15:38.132Z,48.59
2022-12-03T00:16:36.064Z,56.20
2022-12-03T00:17:36.076Z,52.90
2022-12-03T00:18:36.094Z,51.74
2022-12-03T00:19:36.046Z,49.75
2022-12-03T00:20:36.098Z,50.56
2022-12-03T00:21:36.019Z,52.50
2022-12-03T00:22:36.000Z,54.20
2022-12-03T00:23:41.751Z,52.02
2022-12-03T00:24:38.029Z,55.10
2022-12-03T00:25:36.053Z,56.20
2022-12-03T00:26:36.000Z,55.27
2022-12-03T00:27:36.021Z,54.85
2022-12-03T00:28:35.943Z,50.12
2022-12-03T00:29:35.961Z,50.20
2022-12-03T00:30:36.018Z,47.10
2022-12-03T00:31:35.976Z,58.55
2022-12-03T00:32:35.902Z,55.05
2022-12-03T00:33:35.880Z,51.96
2022-12-03T00:34:36.020Z,55.09
2022-12-03T00:35:35.881Z,55.19
2022-12-03T00:36:35.896Z,47.61
2022-12-03T00:37:35.927Z,55.90
2022-12-03T00:38:35.838Z,53.24
2022-12-03T00:39:35.993Z,57.02
2022-12-03T00:40:35.831Z,51.61
2022-12-03T00:41:35.844Z,54.28
2022-12-03T00:42:35.854Z,50.09
2022-12-03T00:43:35.777Z,51.18
2022-12-03T00:44:35.788Z,51.99
2022-12-03T00:45:35.896Z,46.20
2022-12-03T00:46:35.804Z,50.35
2022-12-03T00:47:35.794Z,48.58
2022-12-03T00:48:35.752Z,46.27
2022-12-03T00:49:35.717Z,46.19
2022-12-03T00:50:35.994Z,50.19
2022-12-03T00:51:35.958Z,56.42
2022-12-03T00:52:35.751Z,50.61
2022-12-03T00:53:35.716Z,51.73
2022-12-03T00:54:35.779Z,51.76
2022-12-03T00:55:35.711Z,53.55
2022-12-03T00:56:35.779Z,45.60
2022-12-03T00:57:35.703Z,47.11
2022-12-03T00:58:35.851Z,50.85
2022-12-03T00:59:35.731Z,45.58
2022-12-03T01:00:35.582Z,46.77
2022-12-03T01:01:35.752Z,46.05
2022-12-03T01:02:35.859Z,50.59
2022-12-03T01:03:35.685Z,47.42
2022-12-03T01:04:35.757Z,50.99
2022-12-03T01:05:35.956Z,48.52
2022-12-03T01:06:35.863Z,50.82
2022-12-03T01:07:35.596Z,55.75
2022-12-03T01:08:35.832Z,51.97
2022-12-03T01:09:35.858Z,54.68
2022-12-03T01:10:35.584Z,52.54
2022-12-03T01:12:10.420Z,45.45
2022-12-03T01:12:36.336Z,52.22
2022-12-03T01:13:35.917Z,50.66
2022-12-03T01:14:36.070Z,54.77
2022-12-03T01:15:36.019Z,50.72
2022-12-03T01:16:35.718Z,53.10
2022-12-03T01:17:35.716Z,51.44
2022-12-03T01:18:35.804Z,50.78
2022-12-03T01:19:35.702Z,50.70
2022-12-03T01:20:35.817Z,56.00
2022-12-03T01:21:35.393Z,53.38
2022-12-03T01:22:35.343Z,49.06
2022-12-03T01:23:35.363Z,47.19
2022-12-03T01:24:36.411Z,57.69
2022-12-03T01:25:35.350Z,55.53
2022-12-03T01:27:07.675Z,47.22
2022-12-03T01:27:35.234Z,46.46
2022-12-03T01:28:35.200Z,52.99
2022-12-03T01:29:35.212Z,50.35
2022-12-03T01:30:35.212Z,53.85
2022-12-03T01:31:36.228Z,53.14
2022-12-03T01:32:35.164Z,54.07
2022-12-03T01:33:35.165Z,48.10
2022-12-03T01:34:35.224Z,50.42
2022-12-03T01:35:35.153Z,52.06
2022-12-03T01:36:35.132Z,53.06
2022-12-03T01:37:35.122Z,54.02
2022-12-03T01:38:35.083Z,46.96
2022-12-03T01:39:35.097Z,55.24
2022-12-03T01:40:35.099Z,54.34
2022-12-03T01:41:35.070Z,47.42
2022-12-03T01:42:35.083Z,54.03
2022-12-03T01:43:35.043Z,55.61
2022-12-03T01:44:35.062Z,45.08
2022-12-03T01:45:35.056Z,46.37
2022-12-03T01:46:35.037Z,45.52
2022-12-03T01:47:34.999Z,50.38
2022-12-03T01:48:35.012Z,59.32
2022-12-03T01:49:34.982Z,59.17
2022-12-03T01:50:34.967Z,46.52
2022-12-03T01:51:34.973Z,48.29
2022-12-03T01:52:34.921Z,48.75
2022-12-03T01:53:34.929Z,49.18
2022-12-03T01:54:34.963Z,43.51
2022-12-03T01:55:34.933Z,43.95
2022-12-03T01:56:34.886Z,44.32
2022-12-03T01:57:34.896Z,50.73
2022-12-03T01:58:34.917Z,51.04
2022-12-03T01:59:34.874Z,47.28
2022-12-03T02:00:34.887Z,49.28
2022-12-03T02:01:34.888Z,44.56
2022-12-03T02:02:34.824Z,50.47
2022-12-03T02:03:34.890Z,56.48
2022-12-03T02:04:34.827Z,55.04
2022-12-03T02:05:34.846Z,48.35
2022-12-03T02:06:34.788Z,55.77
2022-12-03T02:07:34.858Z,54.04
2022-12-03T02:08:34.762Z,52.50
2022-12-03T02:09:34.760Z,49.08
2022-12-03T02:10:34.770Z,50.14
2022-12-03T02:11:34.745Z,44.24
2022-12-03T02:12:34.715Z,46.03
2022-12-03T02:13:34.704Z,46.52
2022-12-03T02:14:34.751Z,46.41
2022-12-03T02:15:34.710Z,51.53
2022-12-03T02:16:34.774Z,51.31
2022-12-03T02:17:34.663Z,51.45
2022-12-03T02:18:34.699Z,48.04
2022-12-03T02:19:34.655Z,49.53
2022-12-03T02:20:34.629Z,53.05
2022-12-03T02:21:34.629Z,52.79
2022-12-03T02:22:34.636Z,50.37
2022-12-03T02:23:34.618Z,46.19
2022-12-03T02:24:34.621Z,49.71
2022-12-03T02:25:34.605Z,58.09
2022-12-03T02:26:34.561Z,45.96
2022-12-03T02:27:34.562Z,48.78
2022-12-03T02:28:34.584Z,53.70
2022-12-03T02:29:34.571Z,48.96
2022-12-03T02:30:34.540Z,52.63
2022-12-03T02:31:34.675Z,52.12
2022-12-03T02:32:34.532Z,55.15
2022-12-03T02:33:34.516Z,60.03
2022-12-03T02:34:34.515Z,53.33
2022-12-03T02:35:34.487Z,48.05
2022-12-03T02:36:34.461Z,46.34
2022-12-03T02:37:34.455Z,53.49
2022-12-03T02:38:34.475Z,46.97
2022-12-03T02:39:34.429Z,43.61
2022-12-03T02:40:34.451Z,44.69
2022-12-03T02:41:34.411Z,52.93
2022-12-03T02:42:34.392Z,50.89
2022-12-03T02:43:34.417Z,47.51
2022-12-03T02:44:34.401Z,45.48
2022-12-03T02:45:34.392Z,55.23
2022-12-03T02:46:34.425Z,51.94
2022-12-03T02:47:34.355Z,48.59
2022-12-03T02:48:34.372Z,46.36
2022-12-03T02:49:34.366Z,48.37
2022-12-03T02:50:34.320Z,54.34
2022-12-03T02:51:34.333Z,48.35
2022-12-03T02:52:34.313Z,48.29
2022-12-03T02:53:34.309Z,51.52
2022-12-03T02:54:34.265Z,54.24
2022-12-03T02:55:37.139Z,51.53
2022-12-03T02:56:35.248Z,51.15
2022-12-03T02:57:34.275Z,44.05
2022-12-03T02:58:34.273Z,44.50
2022-12-03T02:59:34.227Z,51.91
2022-12-03T03:00:34.227Z,52.36
2022-12-03T03:01:34.244Z,57.15
2022-12-03T03:02:34.283Z,49.88
2022-12-03T03:03:34.175Z,48.47
2022-12-03T03:04:34.196Z,49.38
2022-12-03T03:05:34.166Z,50.14
2022-12-03T03:06:34.165Z,52.67
2022-12-03T03:07:35.208Z,51.95
2022-12-03T03:08:34.148Z,52.94
2022-12-03T03:09:35.145Z,51.91
2022-12-03T03:10:34.105Z,52.68
2022-12-03T03:11:34.122Z,55.38
2022-12-03T03:12:38.966Z,52.42
2022-12-03T03:13:36.097Z,51.96
2022-12-03T03:14:34.086Z,50.83
2022-12-03T03:15:34.063Z,47.82
2022-12-03T03:16:34.151Z,48.97
2022-12-03T03:17:34.035Z,46.89
2022-12-03T03:18:34.038Z,47.46
2022-12-03T03:19:34.004Z,51.20
2022-12-03T03:20:34.034Z,53.46
2022-12-03T03:21:34.000Z,45.91
2022-12-03T03:22:33.978Z,48.19
2022-12-03T03:23:33.970Z,48.26
2022-12-03T03:24:33.978Z,46.56
2022-12-03T03:25:33.957Z,48.89
2022-12-03T03:26:33.935Z,51.61
2022-12-03T03:27:33.953Z,53.99
2022-12-03T03:28:33.917Z,54.03
2022-12-03T03:29:33.907Z,54.10
2022-12-03T03:30:33.927Z,54.59
2022-12-03T03:31:33.920Z,46.42
2022-12-03T03:32:33.881Z,51.22
2022-12-03T03:33:33.867Z,55.93
2022-12-03T03:34:33.882Z,49.98
2022-12-03T03:35:33.841Z,47.79
2022-12-03T03:36:33.839Z,49.13
2022-12-03T03:37:33.821Z,54.51
2022-12-03T03:38:33.806Z,51.61
2022-12-03T03:39:33.801Z,45.23
2022-12-03T03:40:33.824Z,55.98
2022-12-03T03:41:33.804Z,54.17
2022-12-03T03:42:33.768Z,52.69
2022-12-03T03:43:33.809Z,49.05
2022-12-03T03:44:33.727Z,50.03
2022-12-03T03:45:33.861Z,54.57
2022-12-03T03:46:33.839Z,46.70
2022-12-03T03:47:33.719Z,47.48
2022-12-03T03:48:33.682Z,49.74
2022-12-03T03:49:33.683Z,54.71
2022-12-03T03:50:33.708Z,49.95
2022-12-03T03:51:33.683Z,48.31
2022-12-03T03:52:33.651Z,49.25
2022-12-03T03:53:33.664Z,51.05
2022-12-03T03:54:33.681Z,50.88
2022-12-03T03:55:33.632Z,52.85
2022-12-03T03:56:33.597Z,52.80
2022-12-03T03:57:33.611Z,47.95
2022-12-03T03:58:33.608Z,53.02
2022-12-03T03:59:33.597Z,53.70
2022-12-03T04:00:33.601Z,53.73
2022-12-03T04:01:33.658Z,54.77
2022-12-03T04:02:33.532Z,47.88
2022-12-03T04:03:33.549Z,54.60
2022-12-03T04:04:33.611Z,48.15
2022-12-03T04:05:33.519Z,47.21
2022-12-03T04:06:33.506Z,52.51
2022-12-03T04:07:33.560Z,52.57
2022-12-03T04:08:33.474Z,56.84
2022-12-03T04:09:33.472Z,54.58
2022-12-03T04:10:33.477Z,55.06
2022-12-03T04:11:33.467Z,52.88
2022-12-03T04:12:33.448Z,57.37
2022-12-03T04:13:33.431Z,53.27
2022-12-03T04:14:33.462Z,47.69
2022-12-03T04:15:33.417Z,49.66
2022-12-03T04:16:33.455Z,53.32
2022-12-03T04:17:33.471Z,55.21
2022-12-03T04:18:33.385Z,49.00
2022-12-03T04:19:33.367Z,50.52
2022-12-03T04:20:33.393Z,54.16
2022-12-03T04:21:33.352Z,56.42
2022-12-03T04:22:33.325Z,52.74
2022-12-03T04:23:33.325Z,56.53
2022-12-03T04:24:33.349Z,48.82
2022-12-03T04:25:33.421Z,50.35
2022-12-03T04:26:33.295Z,54.16
2022-12-03T04:27:33.299Z,56.57
2022-12-03T04:28:33.327Z,58.63
2022-12-03T04:29:33.268Z,54.03
2022-12-03T04:30:33.276Z,53.11
2022-12-03T04:31:33.269Z,48.69
2022-12-03T04:32:33.227Z,55.17
2022-12-03T04:33:33.214Z,53.12
2022-12-03T04:34:33.224Z,45.45
2022-12-03T04:35:33.309Z,53.39
2022-12-03T04:36:33.201Z,51.56
2022-12-03T04:37:33.176Z,49.85
2022-12-03T04:38:33.189Z,53.64
2022-12-03T04:39:33.159Z,51.14
2022-12-03T04:40:33.167Z,56.84
2022-12-03T04:41:33.156Z,58.62
2022-12-03T04:42:33.126Z,50.28
2022-12-03T04:43:33.116Z,54.75
2022-12-03T04:44:33.116Z,55.53
2022-12-03T04:45:33.135Z,51.57
2022-12-03T04:46:33.126Z,47.94
2022-12-03T04:47:36.936Z,49.72
2022-12-03T04:48:35.048Z,57.66
2022-12-03T04:49:33.062Z,54.17
2022-12-03T04:50:33.052Z,52.63
2022-12-03T04:51:33.026Z,58.76
2022-12-03T04:52:33.012Z,55.41
2022-12-03T04:53:36.013Z,51.97
2022-12-03T04:54:33.015Z,56.37
2022-12-03T04:55:32.991Z,51.78
2022-12-03T04:56:32.963Z,53.48
2022-12-03T04:57:32.966Z,54.54
2022-12-03T04:58:32.977Z,49.38
2022-12-03T04:59:32.946Z,48.57
2022-12-03T05:00:32.931Z,56.36
2022-12-03T05:01:33.012Z,50.98
2022-12-03T05:02:33.041Z,47.72
2022-12-03T05:03:32.911Z,50.42
2022-12-03T05:04:32.905Z,55.67
2022-12-03T05:05:32.890Z,56.42
2022-12-03T05:06:32.853Z,48.03
2022-12-03T05:07:32.882Z,50.11
2022-12-03T05:08:32.867Z,52.51
2022-12-03T05:09:32.835Z,58.35
2022-12-03T05:10:32.799Z,56.69
2022-12-03T05:11:32.827Z,54.73
2022-12-03T05:12:32.804Z,58.68
2022-12-03T05:13:32.801Z,57.78
2022-12-03T05:14:32.893Z,55.64
2022-12-03T05:15:32.761Z,54.25
2022-12-03T05:16:32.832Z,58.97
2022-12-03T05:17:32.744Z,53.61
2022-12-03T05:18:32.764Z,55.78
2022-12-03T05:19:32.710Z,56.51
2022-12-03T05:20:32.762Z,55.17
2022-12-03T05:21:32.708Z,56.55
2022-12-03T05:22:32.692Z,56.93
2022-12-03T05:23:32.688Z,55.90
2022-12-03T05:24:32.699Z,55.83
2022-12-03T05:25:32.654Z,54.25
2022-12-03T05:26:32.633Z,52.43
2022-12-03T05:27:32.658Z,52.64
2022-12-03T05:28:32.655Z,55.33
2022-12-03T05:29:32.616Z,56.75
2022-12-03T05:30:32.660Z,57.75
2022-12-03T05:31:32.604Z,58.19
2022-12-03T05:32:32.615Z,57.80
2022-12-03T05:33:32.584Z,55.31
2022-12-03T05:34:32.570Z,44.99
2022-12-03T05:35:32.561Z,53.84
2022-12-03T05:36:32.531Z,54.13
2022-12-03T05:37:32.533Z,55.92
2022-12-03T05:38:32.575Z,57.84
2022-12-03T05:39:32.505Z,60.61
2022-12-03T05:40:32.484Z,57.00
2022-12-03T05:41:32.484Z,56.14
2022-12-03T05:42:32.505Z,55.70
2022-12-03T05:43:32.474Z,56.41
2022-12-03T05:44:32.476Z,57.04
2022-12-03T05:45:32.480Z,55.51
2022-12-03T05:46:32.460Z,57.46
2022-12-03T05:47:32.426Z,56.57
2022-12-03T05:48:32.444Z,57.22
2022-12-03T05:49:32.397Z,59.65
2022-12-03T05:50:32.387Z,57.13
2022-12-03T05:51:32.399Z,56.61
2022-12-03T05:52:32.352Z,56.89
2022-12-03T05:53:32.363Z,53.42
2022-12-03T05:54:32.377Z,54.77
2022-12-03T05:55:32.367Z,58.16
2022-12-03T05:56:32.324Z,55.31
2022-12-03T05:57:32.317Z,54.95
2022-12-03T05:58:32.337Z,58.38
2022-12-03T05:59:32.309Z,52.23
2022-12-03T06:00:32.266Z,53.17
2022-12-03T06:01:32.266Z,55.02
2022-12-03T06:02:32.472Z,54.44
2022-12-03T06:03:32.486Z,56.87
2022-12-03T06:04:32.249Z,54.13
2022-12-03T06:05:32.239Z,51.42
2022-12-03T06:06:32.240Z,51.46
2022-12-03T06:07:32.242Z,61.23
2022-12-03T06:08:32.235Z,57.53
2022-12-03T06:09:32.193Z,56.47
2022-12-03T06:10:32.171Z,51.20
2022-12-03T06:11:32.165Z,56.41
2022-12-03T06:12:32.204Z,51.41
2022-12-03T06:13:32.161Z,56.84
2022-12-03T06:14:32.121Z,50.64
2022-12-03T06:15:32.229Z,56.31
2022-12-03T06:16:32.219Z,52.05
2022-12-03T06:17:32.096Z,51.68
2022-12-03T06:18:32.113Z,53.15
2022-12-03T06:19:32.097Z,55.40
2022-12-03T06:20:32.062Z,57.20
2022-12-03T06:21:32.086Z,53.67
2022-12-03T06:22:32.071Z,57.35
2022-12-03T06:23:32.032Z,52.03
2022-12-03T06:24:32.077Z,52.94
2022-12-03T06:25:32.025Z,51.58
2022-12-03T06:26:31.987Z,58.72
2022-12-03T06:27:31.999Z,54.37
2022-12-03T06:28:32.007Z,50.78
2022-12-03T06:29:33.002Z,57.86
2022-12-03T06:30:31.946Z,53.48
2022-12-03T06:31:31.983Z,54.39
2022-12-03T06:32:31.954Z,55.49
2022-12-03T06:33:31.946Z,55.09
2022-12-03T06:34:31.928Z,53.46
2022-12-03T06:35:31.934Z,55.36
2022-12-03T06:36:31.925Z,56.85
2022-12-03T06:37:31.917Z,59.22
2022-12-03T06:38:31.861Z,51.30
2022-12-03T06:39:31.904Z,49.57
2022-12-03T06:40:31.850Z,49.82
2022-12-03T06:41:31.852Z,56.84
2022-12-03T06:42:31.882Z,50.90
2022-12-03T06:43:31.840Z,54.25
2022-12-03T06:44:31.798Z,56.80
2022-12-03T06:45:31.805Z,56.96
2022-12-03T06:46:31.908Z,57.62
2022-12-03T06:47:31.779Z,54.42
2022-12-03T06:48:31.794Z,56.43
2022-12-03T06:49:31.764Z,55.88
2022-12-03T06:50:31.728Z,51.81
2022-12-03T06:51:31.756Z,55.64
2022-12-03T06:52:31.753Z,57.21
2022-12-03T06:53:31.732Z,55.45
2022-12-03T06:54:31.700Z,55.18
2022-12-03T06:55:31.708Z,57.84
2022-12-03T06:56:36.876Z,56.71
2022-12-03T06:57:33.673Z,50.36
2022-12-03T06:58:31.685Z,55.55
2022-12-03T06:59:31.657Z,55.92
2022-12-03T07:00:31.688Z,53.94
2022-12-03T07:01:31.646Z,54.81
2022-12-03T07:02:31.720Z,52.42
2022-12-03T07:03:31.673Z,55.79
2022-12-03T07:04:31.629Z,54.50
2022-12-03T07:05:31.587Z,52.44
2022-12-03T07:06:31.632Z,53.10
2022-12-03T07:07:31.692Z,54.72
2022-12-03T07:08:31.536Z,53.58
2022-12-03T07:09:31.550Z,52.29
2022-12-03T07:10:31.549Z,52.78
2022-12-03T07:11:31.501Z,55.47
2022-12-03T07:12:31.520Z,57.74
2022-12-03T07:13:31.515Z,51.70
2022-12-03T07:14:31.479Z,53.17
2022-12-03T07:15:31.491Z,57.90
2022-12-03T07:16:31.582Z,54.83
2022-12-03T07:17:31.470Z,52.89
2022-12-03T07:18:31.452Z,56.30
2022-12-03T07:19:33.069Z,55.92
2022-12-03T07:20:32.408Z,51.78
2022-12-03T07:21:31.408Z,55.67
2022-12-03T07:22:31.418Z,55.11
2022-12-03T07:23:31.396Z,53.94
2022-12-03T07:24:31.379Z,53.60
2022-12-03T07:25:31.386Z,55.65
2022-12-03T07:26:31.396Z,57.71
2022-12-03T07:28:04.180Z,56.94
2022-12-03T07:28:31.453Z,55.34
2022-12-03T07:29:31.504Z,54.40
2022-12-03T07:30:31.435Z,52.59
2022-12-03T07:31:31.510Z,56.58
2022-12-03T07:32:31.321Z,54.79
2022-12-03T07:33:31.400Z,55.22
2022-12-03T07:34:31.328Z,54.97
2022-12-03T07:35:31.344Z,53.94
2022-12-03T07:36:31.349Z,52.76
2022-12-03T07:37:31.280Z,55.37
2022-12-03T07:38:31.307Z,54.46
2022-12-03T07:39:31.338Z,54.54
2022-12-03T07:40:31.306Z,57.41
2022-12-03T07:41:31.276Z,60.35
2022-12-03T07:42:31.227Z,57.16
2022-12-03T07:43:31.237Z,57.42
2022-12-03T07:44:31.215Z,54.45
2022-12-03T07:45:31.198Z,52.18
2022-12-03T07:46:31.238Z,57.17
2022-12-03T07:47:31.201Z,53.34
2022-12-03T07:48:31.139Z,52.08
2022-12-03T07:49:31.124Z,53.79
2022-12-03T07:50:31.191Z,56.80
2022-12-03T07:51:32.439Z,55.15
2022-12-03T07:52:32.127Z,58.08
2022-12-03T07:53:31.083Z,54.62
2022-12-03T07:54:31.108Z,54.13
2022-12-03T07:55:31.101Z,56.61
2022-12-03T07:56:31.066Z,57.26
2022-12-03T07:57:31.072Z,59.18
2022-12-03T07:58:31.089Z,57.15
2022-12-03T07:59:31.019Z,58.79
2022-12-03T08:00:31.075Z,56.33
2022-12-03T08:01:31.059Z,55.72
2022-12-03T08:02:31.060Z,56.79
2022-12-03T08:03:31.033Z,55.72
2022-12-03T08:04:31.008Z,55.28
2022-12-03T08:05:30.945Z,55.34
2022-12-03T08:06:30.947Z,55.67
2022-12-03T08:07:30.966Z,58.04
2022-12-03T08:08:30.968Z,56.34
2022-12-03T08:09:30.878Z,55.30
2022-12-03T08:10:30.926Z,57.97
2022-12-03T08:11:30.942Z,57.96
2022-12-03T08:12:30.886Z,58.23
2022-12-03T08:13:30.898Z,59.55
2022-12-03T08:14:30.906Z,57.33
2022-12-03T08:15:36.943Z,59.95
2022-12-03T08:16:32.908Z,56.22
2022-12-03T08:17:30.840Z,55.17
2022-12-03T08:18:30.801Z,55.58
2022-12-03T08:19:30.868Z,55.37
2022-12-03T08:20:30.802Z,54.99
2022-12-03T08:21:30.811Z,56.60
2022-12-03T08:22:30.775Z,66.20
2022-12-03T08:23:30.827Z,57.41
2022-12-03T08:24:30.775Z,57.33
2022-12-03T08:25:30.715Z,58.23
2022-12-03T08:26:30.711Z,54.93
2022-12-03T08:27:30.744Z,55.62
2022-12-03T08:28:30.681Z,54.53
2022-12-03T08:29:30.738Z,57.87
2022-12-03T08:30:30.725Z,55.79
2022-12-03T08:31:33.462Z,56.68
2022-12-03T08:32:31.688Z,55.72
2022-12-03T08:33:30.668Z,59.60
2022-12-03T08:34:30.623Z,59.03
2022-12-03T08:35:30.676Z,59.00
2022-12-03T08:36:30.658Z,60.32
2022-12-03T08:37:30.616Z,56.39
2022-12-03T08:38:31.612Z,57.39
2022-12-03T08:39:30.586Z,57.63
2022-12-03T08:40:30.548Z,57.67
2022-12-03T08:41:30.615Z,57.59
2022-12-03T08:42:30.525Z,56.83
2022-12-03T08:43:30.516Z,57.57
2022-12-03T08:44:30.576Z,59.72
2022-12-03T08:45:30.565Z,57.56
2022-12-03T08:46:30.561Z,58.16
2022-12-03T08:47:30.496Z,57.85
2022-12-03T08:48:30.500Z,58.30
2022-12-03T08:49:30.492Z,58.20
2022-12-03T08:50:30.502Z,55.99
2022-12-03T08:51:30.459Z,53.88
2022-12-03T08:52:30.492Z,69.40
2022-12-03T08:53:30.411Z,59.36
2022-12-03T08:54:30.438Z,55.61
2022-12-03T08:55:30.462Z,58.29
2022-12-03T08:56:30.406Z,59.37
2022-12-03T08:57:30.398Z,57.77
2022-12-03T08:58:30.436Z,57.33
2022-12-03T08:59:30.385Z,55.04
2022-12-03T09:00:30.380Z,55.36
2022-12-03T09:01:30.433Z,56.09
2022-12-03T09:02:30.330Z,56.68
2022-12-03T09:03:30.315Z,54.92
2022-12-03T09:04:30.404Z,58.10
2022-12-03T09:05:30.362Z,55.19
2022-12-03T09:06:30.277Z,55.16
2022-12-03T09:07:30.343Z,55.48
2022-12-03T09:08:30.305Z,56.49
2022-12-03T09:09:30.266Z,57.45
2022-12-03T09:10:30.249Z,57.86
2022-12-03T09:11:30.276Z,56.45
2022-12-03T09:12:30.232Z,56.67
2022-12-03T09:13:30.216Z,57.34
2022-12-03T09:14:30.187Z,59.00
2022-12-03T09:15:30.230Z,57.99
2022-12-03T09:16:30.294Z,58.13
2022-12-03T09:17:30.230Z,58.71
2022-12-03T09:18:30.195Z,56.07
2022-12-03T09:19:30.150Z,57.42
2022-12-03T09:20:30.181Z,61.16
2022-12-03T09:21:30.157Z,57.06
2022-12-03T09:22:30.169Z,58.27
2022-12-03T09:23:30.131Z,57.86
2022-12-03T09:24:30.103Z,59.00
2022-12-03T09:25:30.168Z,55.83
2022-12-03T09:26:30.059Z,57.43
2022-12-03T09:27:30.092Z,56.80
2022-12-03T09:28:30.097Z,58.94
2022-12-03T09:29:30.076Z,57.46
2022-12-03T09:30:30.064Z,59.70
2022-12-03T09:31:30.122Z,60.11
2022-12-03T09:32:30.127Z,60.15
2022-12-03T09:33:30.042Z,63.62
2022-12-03T09:34:30.005Z,58.28
2022-12-03T09:35:29.978Z,55.74
2022-12-03T09:36:30.033Z,61.00
2022-12-03T09:37:29.953Z,57.97
2022-12-03T09:38:30.950Z,57.93
2022-12-03T09:39:29.975Z,59.49
2022-12-03T09:40:29.969Z,58.91
2022-12-03T09:41:29.946Z,58.32
2022-12-03T09:42:29.921Z,57.65
2022-12-03T09:43:43.324Z,58.33
2022-12-03T09:44:31.899Z,58.84
2022-12-03T09:45:29.974Z,58.31
2022-12-03T09:46:29.955Z,58.01
2022-12-03T09:47:29.910Z,57.79
2022-12-03T09:48:29.896Z,56.43
2022-12-03T09:49:29.892Z,57.42
2022-12-03T09:50:29.838Z,57.40
2022-12-03T09:51:29.813Z,56.49
2022-12-03T09:52:29.854Z,57.68
2022-12-03T09:53:29.798Z,59.66
2022-12-03T09:54:29.792Z,59.90
2022-12-03T09:55:29.775Z,60.11
2022-12-03T09:56:29.844Z,57.42
2022-12-03T09:57:29.796Z,58.22
2022-12-03T09:58:34.579Z,60.55
2022-12-03T09:59:31.739Z,56.93
2022-12-03T10:00:29.760Z,55.57
2022-12-03T10:01:30.696Z,59.72
2022-12-03T10:02:30.700Z,57.49
2022-12-03T10:03:30.234Z,56.37
2022-12-03T10:04:30.765Z,58.34
2022-12-03T10:05:29.691Z,57.59
2022-12-03T10:06:29.662Z,58.99
2022-12-03T10:07:29.801Z,56.75
2022-12-03T10:08:32.276Z,58.94
2022-12-03T10:09:30.628Z,57.95
2022-12-03T10:10:29.613Z,56.80
2022-12-03T10:11:29.657Z,57.87
2022-12-03T10:12:29.596Z,59.80
2022-12-03T10:13:29.573Z,56.71
2022-12-03T10:14:29.626Z,58.66
2022-12-03T10:15:29.597Z,59.38
2022-12-03T10:16:29.607Z,59.35
2022-12-03T10:17:29.573Z,59.81
2022-12-03T10:18:30.840Z,56.80
2022-12-03T10:19:30.537Z,59.52
2022-12-03T10:20:29.514Z,56.81
2022-12-03T10:21:29.484Z,57.74
2022-12-03T10:22:29.557Z,55.56
2022-12-03T10:23:29.515Z,57.47
2022-12-03T10:24:29.463Z,55.82
2022-12-03T10:25:29.458Z,57.96
2022-12-03T10:26:29.484Z,57.75
2022-12-03T10:27:29.472Z,58.40
2022-12-03T10:28:29.432Z,57.03
2022-12-03T10:29:33.539Z,58.18
2022-12-03T10:30:31.451Z,60.13
2022-12-03T10:31:29.496Z,56.56
2022-12-03T10:32:29.362Z,57.64
2022-12-03T10:33:29.350Z,59.59
2022-12-03T10:34:29.405Z,57.01
2022-12-03T10:35:29.356Z,59.19
2022-12-03T10:36:29.345Z,58.71
2022-12-03T10:37:29.324Z,57.50
2022-12-03T10:38:29.348Z,58.76
2022-12-03T10:39:30.329Z,58.24
2022-12-03T10:40:29.323Z,58.92
2022-12-03T10:41:29.280Z,58.47
2022-12-03T10:42:29.325Z,57.68
2022-12-03T10:43:29.297Z,58.35
2022-12-03T10:44:29.240Z,58.35
2022-12-03T10:45:29.225Z,58.12
2022-12-03T10:46:29.419Z,57.69
2022-12-03T10:47:29.467Z,56.92
2022-12-03T10:48:29.210Z,56.54
2022-12-03T10:49:29.377Z,62.29
2022-12-03T10:50:29.234Z,56.77
2022-12-03T10:51:29.179Z,55.34
2022-12-03T10:52:29.184Z,59.72
2022-12-03T10:53:29.153Z,56.47
2022-12-03T10:54:29.204Z,57.23
2022-12-03T10:55:29.141Z,57.95
2022-12-03T10:56:29.167Z,58.56
2022-12-03T10:57:29.153Z,58.04
2022-12-03T10:58:29.117Z,59.04
2022-12-03T10:59:29.106Z,59.08
2022-12-03T11:00:29.075Z,56.33
2022-12-03T11:01:29.112Z,57.26
2022-12-03T11:02:29.071Z,56.65
2022-12-03T11:03:29.091Z,58.37
2022-12-03T11:04:29.008Z,57.71
2022-12-03T11:05:29.019Z,55.72
2022-12-03T11:06:28.998Z,56.90
2022-12-03T11:07:29.123Z,58.83
2022-12-03T11:08:29.109Z,61.58
2022-12-03T11:09:29.002Z,57.62
2022-12-03T11:10:28.969Z,56.85
2022-12-03T11:11:28.990Z,56.91
2022-12-03T11:12:29.053Z,56.82
2022-12-03T11:13:28.976Z,58.13
2022-12-03T11:14:28.942Z,58.30
2022-12-03T11:15:28.967Z,57.34
2022-12-03T11:16:29.014Z,57.78
2022-12-03T11:17:28.976Z,58.58
2022-12-03T11:18:28.880Z,57.84
2022-12-03T11:19:28.865Z,58.52
2022-12-03T11:20:28.881Z,57.60
2022-12-03T11:21:28.851Z,54.70
2022-12-03T11:22:28.823Z,56.83
2022-12-03T11:23:28.840Z,60.07
2022-12-03T11:24:28.842Z,56.48
2022-12-03T11:25:28.849Z,57.81
2022-12-03T11:26:28.825Z,58.02
2022-12-03T11:27:28.793Z,59.78
2022-12-03T11:28:28.843Z,57.02
2022-12-03T11:29:28.817Z,57.72
2022-12-03T11:30:28.754Z,58.11
2022-12-03T11:31:28.892Z,58.78
2022-12-03T11:32:31.977Z,55.65
2022-12-03T11:33:29.773Z,59.42
2022-12-03T11:34:28.719Z,59.82
2022-12-03T11:35:28.714Z,59.88
2022-12-03T11:36:54.126Z,58.78
2022-12-03T11:37:30.693Z,58.60
2022-12-03T11:38:28.670Z,58.96
2022-12-03T11:39:28.654Z,55.14
2022-12-03T11:40:28.686Z,58.62
2022-12-03T11:41:28.687Z,57.15
2022-12-03T11:42:28.704Z,57.97
2022-12-03T11:43:28.645Z,56.96
2022-12-03T11:44:28.657Z,58.82
2022-12-03T11:45:28.593Z,60.42
2022-12-03T11:46:28.648Z,60.49
2022-12-03T11:47:28.618Z,62.78
2022-12-03T11:48:28.565Z,59.44
2022-12-03T11:49:28.569Z,58.68
2022-12-03T11:50:28.570Z,61.38
2022-12-03T11:51:28.568Z,58.60
2022-12-03T11:52:28.538Z,58.82
2022-12-03T11:53:28.541Z,59.79
2022-12-03T11:54:28.524Z,58.89
2022-12-03T11:55:28.514Z,58.34
2022-12-03T11:56:28.471Z,60.84
2022-12-03T11:57:28.484Z,61.80
2022-12-03T11:58:28.540Z,60.09
2022-12-03T11:59:28.449Z,58.38
2022-12-03T12:00:28.509Z,59.97
2022-12-03T12:01:28.428Z,59.77
2022-12-03T12:02:28.530Z,57.38
2022-12-03T12:03:28.610Z,58.46
2022-12-03T12:04:28.476Z,59.18
2022-12-03T12:05:28.425Z,61.05
2022-12-03T12:06:28.461Z,60.20
2022-12-03T12:07:28.462Z,59.64
2022-12-03T12:08:28.377Z,57.60
2022-12-03T12:09:28.409Z,57.67
2022-12-03T12:10:28.425Z,60.21
2022-12-03T12:11:28.436Z,56.68
2022-12-03T12:12:28.388Z,60.42
2022-12-03T12:13:28.441Z,59.80
2022-12-03T12:14:28.325Z,61.78
2022-12-03T12:15:28.322Z,58.49
2022-12-03T12:16:28.445Z,62.05
2022-12-03T12:17:28.328Z,61.10
2022-12-03T12:18:28.301Z,61.17
2022-12-03T12:19:28.354Z,59.28
2022-12-03T12:20:28.284Z,60.86
2022-12-03T12:21:28.321Z,60.50
2022-12-03T12:22:28.279Z,59.35
2022-12-03T12:23:28.371Z,57.51
2022-12-03T12:24:28.311Z,61.26
2022-12-03T12:25:28.211Z,61.31
2022-12-03T12:26:28.375Z,58.80
2022-12-03T12:27:28.150Z,59.81
2022-12-03T12:28:28.314Z,59.99
2022-12-03T12:29:28.187Z,58.65
2022-12-03T12:30:28.224Z,59.84
2022-12-03T12:31:28.208Z,61.76
2022-12-03T12:32:28.201Z,61.82
2022-12-03T12:33:28.160Z,61.59
2022-12-03T12:34:28.127Z,60.21
2022-12-03T12:35:28.179Z,59.73
2022-12-03T12:36:28.122Z,59.56
2022-12-03T12:37:28.090Z,60.09
2022-12-03T12:38:28.179Z,60.23
2022-12-03T12:39:28.155Z,59.09
2022-12-03T12:40:28.258Z,59.02
2022-12-03T12:41:28.142Z,62.21
2022-12-03T12:42:28.074Z,60.12
2022-12-03T12:43:28.038Z,59.57
2022-12-03T12:44:27.994Z,59.93
2022-12-03T12:45:28.019Z,59.05
2022-12-03T12:46:47.306Z,61.95
2022-12-03T12:47:30.118Z,58.60
2022-12-03T12:48:28.060Z,59.71
2022-12-03T12:49:27.960Z,58.06
2022-12-03T12:50:27.959Z,57.55
2022-12-03T12:51:28.013Z,60.02
2022-12-03T12:52:28.022Z,61.22